createdAt,value
2017-08-17T00:02:04.705Z,6.00
2017-08-17T00:04:32.908Z,4.63
2017-08-17T00:07:01.110Z,5.90
2017-08-17T00:09:30.081Z,5.83
2017-08-17T00:11:58.253Z,4.70
2017-08-17T00:14:26.482Z,5.70
2017-08-17T00:16:54.732Z,4.83
2017-08-17T00:19:23.824Z,5.17
2017-08-17T00:21:52.867Z,5.07
2017-08-17T00:24:21.811Z,6.97
2017-08-17T00:26:50.006Z,4.40
2017-08-17T00:29:18.212Z,4.40
2017-08-17T00:31:46.402Z,5.07
2017-08-17T00:34:14.683Z,5.30
2017-08-17T00:36:42.906Z,4.77
2017-08-17T00:39:11.177Z,5.37
2017-08-17T00:41:40.029Z,5.80
2017-08-17T00:44:08.354Z,5.50
2017-08-17T00:46:36.505Z,6.00
2017-08-17T00:49:04.697Z,4.50
2017-08-17T00:51:32.875Z,4.60
2017-08-17T00:54:01.082Z,5.03
2017-08-17T00:56:30.342Z,4.83
2017-08-17T00:58:58.535Z,5.77
2017-08-17T01:01:27.920Z,4.87
2017-08-17T01:03:56.111Z,6.20
2017-08-17T01:06:24.298Z,6.13
2017-08-17T01:08:52.563Z,5.93
2017-08-17T01:11:20.874Z,8.80
2017-08-17T01:13:49.101Z,5.47
2017-08-17T01:16:18.384Z,5.20
2017-08-17T01:18:48.001Z,5.00
2017-08-17T01:21:17.023Z,9.60
2017-08-17T01:23:45.241Z,4.80
2017-08-17T01:26:14.035Z,5.33
2017-08-17T01:28:42.205Z,5.57
2017-08-17T01:31:11.059Z,5.97
2017-08-17T01:33:39.351Z,5.40
2017-08-17T01:36:08.761Z,5.97
2017-08-17T01:38:36.910Z,5.10
2017-08-17T01:41:05.141Z,6.00
2017-08-17T01:43:33.499Z,8.13
2017-08-17T01:46:01.741Z,6.30
2017-08-17T01:48:30.717Z,5.90
2017-08-17T01:50:58.934Z,7.17
2017-08-17T01:53:27.843Z,6.73
2017-08-17T01:55:56.067Z,7.03
2017-08-17T01:58:25.152Z,9.77
2017-08-17T02:00:53.664Z,6.87
2017-08-17T02:03:21.833Z,6.40
2017-08-17T02:05:50.041Z,7.20
2017-08-17T02:08:18.216Z,6.80
2017-08-17T02:10:46.478Z,7.50
2017-08-17T02:13:14.633Z,7.63
2017-08-17T02:15:44.282Z,7.97
2017-08-17T02:18:13.057Z,7.63
2017-08-17T02:20:41.270Z,10.50
2017-08-17T02:23:09.524Z,9.27
2017-08-17T02:25:37.694Z,8.40
2017-08-17T02:28:06.045Z,8.30
2017-08-17T02:30:34.523Z,9.80
2017-08-17T02:33:03.091Z,9.17
2017-08-17T02:35:31.263Z,8.40
2017-08-17T02:37:59.696Z,8.30
2017-08-17T02:40:27.947Z,9.83
2017-08-17T02:42:56.115Z,10.03
2017-08-17T02:45:24.294Z,8.37
2017-08-17T02:47:52.522Z,10.30
2017-08-17T02:50:22.210Z,10.17
2017-08-17T02:52:50.421Z,8.63
2017-08-17T02:55:18.654Z,9.43
2017-08-17T02:57:46.885Z,12.80
2017-08-17T03:00:15.723Z,11.40
2017-08-17T03:02:44.120Z,8.60
2017-08-17T03:05:12.364Z,9.50
2017-08-17T03:07:40.749Z,11.50
2017-08-17T03:10:08.983Z,10.63
2017-08-17T03:12:37.278Z,10.83
2017-08-17T03:15:05.581Z,10.20
2017-08-17T03:17:33.784Z,12.73
2017-08-17T03:20:02.038Z,11.97
2017-08-17T03:22:30.293Z,11.37
2017-08-17T03:24:59.251Z,12.20
2017-08-17T03:27:27.498Z,12.70
2017-08-17T03:29:55.706Z,12.67
2017-08-17T03:32:23.891Z,12.33
2017-08-17T03:34:52.875Z,11.67
2017-08-17T03:37:21.064Z,13.10
2017-08-17T03:39:49.359Z,13.60
2017-08-17T03:42:17.793Z,14.53
2017-08-17T03:44:46.835Z,13.07
2017-08-17T03:47:16.128Z,12.87
2017-08-17T03:49:44.403Z,12.30
2017-08-17T03:52:12.680Z,14.13
2017-08-17T03:54:41.674Z,12.57
2017-08-17T03:57:10.051Z,14.83
2017-08-17T03:59:38.223Z,12.93
2017-08-17T04:02:06.409Z,14.63
2017-08-17T04:04:34.622Z,12.80
2017-08-17T04:07:02.975Z,13.73
2017-08-17T04:09:31.337Z,16.30
2017-08-17T04:11:59.731Z,12.40
2017-08-17T04:14:27.958Z,17.30
2017-08-17T04:16:56.134Z,13.90
2017-08-17T04:19:25.066Z,13.30
2017-08-17T04:21:54.016Z,12.60
2017-08-17T04:24:22.228Z,11.70
2017-08-17T04:26:50.486Z,12.10
2017-08-17T04:29:18.766Z,10.83
2017-08-17T04:31:46.959Z,12.87
2017-08-17T04:34:15.358Z,11.00
2017-08-17T04:36:44.388Z,11.50
2017-08-17T04:39:13.199Z,11.73
2017-08-17T04:41:41.445Z,11.20
2017-08-17T04:44:10.626Z,11.13
2017-08-17T04:46:38.900Z,10.33
2017-08-17T04:49:07.127Z,18.73
2017-08-17T04:51:35.355Z,12.40
2017-08-17T04:54:04.319Z,10.87
2017-08-17T04:56:54.840Z,11.97
2017-08-17T04:59:23.062Z,10.73
2017-08-17T05:01:51.333Z,15.23
2017-08-17T05:04:19.548Z,11.87
2017-08-17T05:06:47.841Z,13.93
2017-08-17T05:09:16.841Z,11.73
2017-08-17T05:11:46.027Z,10.80
2017-08-17T05:14:15.173Z,10.57
2017-08-17T05:16:43.382Z,15.57
2017-08-17T05:19:11.583Z,10.50
2017-08-17T05:21:40.561Z,10.80
2017-08-17T05:24:08.735Z,10.60
2017-08-17T05:26:36.921Z,10.20
2017-08-17T05:29:05.056Z,10.03
2017-08-17T05:31:34.026Z,11.10
2017-08-17T05:34:02.920Z,10.60
2017-08-17T05:36:31.230Z,11.40
2017-08-17T05:38:59.489Z,10.43
2017-08-17T05:41:27.793Z,10.10
2017-08-17T05:43:56.045Z,9.80
2017-08-17T05:46:24.245Z,10.77
2017-08-17T05:48:52.495Z,10.70
2017-08-17T05:51:21.358Z,10.87
2017-08-17T05:53:49.561Z,11.00
2017-08-17T05:56:17.896Z,11.97
2017-08-17T05:58:46.824Z,12.67
2017-08-17T06:01:15.039Z,11.40
2017-08-17T06:03:43.273Z,11.57
2017-08-17T06:06:12.313Z,9.93
2017-08-17T06:08:40.571Z,11.57
2017-08-17T06:11:08.830Z,10.83
2017-08-17T06:13:37.103Z,11.00
2017-08-17T06:16:05.428Z,11.17
2017-08-17T06:18:33.661Z,10.83
2017-08-17T06:21:02.646Z,11.20
2017-08-17T06:23:31.050Z,12.20
2017-08-17T06:26:00.023Z,13.57
2017-08-17T06:28:28.807Z,10.13
2017-08-17T06:30:57.593Z,9.00
2017-08-17T06:33:25.808Z,8.70
2017-08-17T06:35:54.823Z,9.70
2017-08-17T06:38:23.181Z,9.77
2017-08-17T06:40:52.325Z,10.33
2017-08-17T06:43:20.609Z,11.53
2017-08-17T06:45:49.895Z,10.27
2017-08-17T06:48:18.161Z,9.90
2017-08-17T06:50:46.465Z,11.80
2017-08-17T06:53:14.689Z,10.53
2017-08-17T06:55:42.915Z,10.63
2017-08-17T06:58:11.703Z,12.50
2017-08-17T07:00:40.116Z,12.30
2017-08-17T07:03:09.078Z,11.60
2017-08-17T07:05:37.321Z,12.67
2017-08-17T07:08:05.663Z,13.57
2017-08-17T07:10:34.794Z,12.40
2017-08-17T07:13:03.000Z,14.30
2017-08-17T07:15:31.171Z,15.70
2017-08-17T07:17:59.350Z,14.43
2017-08-17T07:20:27.770Z,14.20
2017-08-17T07:22:56.046Z,14.40
2017-08-17T07:25:25.066Z,15.50
2017-08-17T07:27:54.702Z,14.27
2017-08-17T07:30:22.952Z,14.70
2017-08-17T07:32:51.200Z,14.73
2017-08-17T07:35:20.153Z,15.90
2017-08-17T07:37:48.397Z,15.97
2017-08-17T07:40:16.626Z,14.50
2017-08-17T07:42:44.840Z,14.30
2017-08-17T07:45:13.700Z,15.00
2017-08-17T07:47:42.653Z,14.93
2017-08-17T07:50:10.829Z,16.37
2017-08-17T07:52:39.798Z,16.83
2017-08-17T07:55:08.040Z,16.07
2017-08-17T07:57:36.267Z,15.00
2017-08-17T08:00:04.875Z,15.07
2017-08-17T08:02:33.075Z,15.77
2017-08-17T08:05:02.168Z,16.43
2017-08-17T08:07:30.952Z,15.80
2017-08-17T08:09:59.195Z,14.27
2017-08-17T08:12:27.366Z,16.17
2017-08-17T08:14:55.638Z,14.43
2017-08-17T08:17:23.891Z,14.87
2017-08-17T08:19:52.230Z,15.60
2017-08-17T08:22:21.176Z,16.47
2017-08-17T08:24:49.351Z,15.93
2017-08-17T08:27:17.522Z,15.70
2017-08-17T08:29:45.800Z,16.37
2017-08-17T08:32:15.115Z,15.77
2017-08-17T08:34:43.274Z,19.17
2017-08-17T08:37:11.549Z,15.50
2017-08-17T08:39:39.939Z,16.33
2017-08-17T08:42:08.907Z,13.47
2017-08-17T08:44:37.337Z,15.80
2017-08-17T08:47:05.552Z,15.67
2017-08-17T08:49:34.549Z,15.97
2017-08-17T08:52:02.797Z,13.97
2017-08-17T08:54:30.999Z,14.20
2017-08-17T08:56:59.305Z,13.83
2017-08-17T08:59:27.525Z,12.60
2017-08-17T09:01:56.032Z,13.87
2017-08-17T09:04:24.894Z,11.20
2017-08-17T09:06:53.834Z,13.03
2017-08-17T09:09:22.830Z,13.40
2017-08-17T09:11:51.212Z,13.30
2017-08-17T09:14:19.469Z,12.97
2017-08-17T09:16:47.664Z,12.53
2017-08-17T09:19:15.891Z,11.13
2017-08-17T09:21:44.670Z,11.23
2017-08-17T09:24:12.901Z,11.63
2017-08-17T09:26:41.208Z,11.37
2017-08-17T09:29:09.454Z,13.53
2017-08-17T09:31:37.708Z,12.03
2017-08-17T09:34:06.715Z,13.20
2017-08-17T09:36:34.885Z,13.23
2017-08-17T09:39:03.065Z,11.77
2017-08-17T09:41:31.248Z,9.80
2017-08-17T09:43:59.550Z,10.30
2017-08-17T09:46:27.779Z,10.70
2017-08-17T09:48:56.582Z,11.23
2017-08-17T09:51:25.575Z,13.90
2017-08-17T09:53:53.755Z,10.47
2017-08-17T09:56:22.021Z,11.43
2017-08-17T09:58:50.192Z,14.20
2017-08-17T10:01:19.161Z,11.37
2017-08-17T10:03:47.344Z,12.37
2017-08-17T10:06:16.323Z,10.97
2017-08-17T10:08:44.938Z,10.80
2017-08-17T10:11:13.156Z,9.27
2017-08-17T10:13:41.338Z,9.17
2017-08-17T10:16:09.563Z,9.67
2017-08-17T10:18:38.462Z,10.07
2017-08-17T10:21:06.621Z,8.23
2017-08-17T10:23:34.820Z,8.20
2017-08-17T10:26:03.047Z,8.83
2017-08-17T10:28:31.450Z,7.70
2017-08-17T10:30:59.646Z,8.33
2017-08-17T10:33:27.937Z,8.97
2017-08-17T10:35:56.491Z,9.40
2017-08-17T10:38:25.422Z,9.30
2017-08-17T10:40:53.638Z,9.70
2017-08-17T10:43:22.601Z,9.87
2017-08-17T10:45:50.864Z,9.33
2017-08-17T10:48:19.070Z,8.43
2017-08-17T10:50:47.301Z,11.53
2017-08-17T10:53:15.564Z,11.17
2017-08-17T10:55:44.014Z,9.00
2017-08-17T10:58:13.447Z,10.57
2017-08-17T11:00:43.661Z,9.70
2017-08-17T11:03:11.914Z,9.70
2017-08-17T11:05:40.933Z,7.97
2017-08-17T11:08:09.286Z,8.37
2017-08-17T11:10:38.219Z,9.50
2017-08-17T11:13:06.452Z,9.87
2017-08-17T11:15:34.905Z,10.83
2017-08-17T11:18:03.110Z,9.50
2017-08-17T11:20:31.314Z,9.80
2017-08-17T11:22:59.525Z,9.17
2017-08-17T11:25:27.806Z,8.93
2017-08-17T11:27:56.005Z,9.27
2017-08-17T11:30:24.213Z,10.70
2017-08-17T11:32:52.427Z,10.70
2017-08-17T11:35:20.800Z,10.07
2017-08-17T11:37:48.978Z,10.60
2017-08-17T11:40:17.181Z,9.47
2017-08-17T11:42:45.466Z,9.60
2017-08-17T11:45:13.713Z,9.07
2017-08-17T11:47:41.874Z,10.80
2017-08-17T11:50:10.117Z,9.27
2017-08-17T11:52:38.779Z,9.60
2017-08-17T11:55:06.983Z,9.40
2017-08-17T11:57:35.262Z,10.23
2017-08-17T12:00:03.564Z,21.83
2017-08-17T12:02:31.768Z,12.30
2017-08-17T12:04:59.935Z,10.20
2017-08-17T12:07:28.137Z,10.60
2017-08-17T12:09:56.379Z,9.70
2017-08-17T12:12:24.592Z,9.57
2017-08-17T12:14:53.519Z,11.60
2017-08-17T12:17:21.755Z,10.40
2017-08-17T12:19:50.943Z,9.63
2017-08-17T12:22:19.145Z,9.67
2017-08-17T12:24:48.118Z,10.23
2017-08-17T12:27:16.313Z,10.10
2017-08-17T12:29:44.549Z,11.43
2017-08-17T12:32:12.806Z,9.30
2017-08-17T12:34:41.163Z,10.87
2017-08-17T12:37:09.341Z,9.33
2017-08-17T12:39:37.514Z,9.30
2017-08-17T12:42:05.682Z,10.57
2017-08-17T12:44:34.919Z,9.20
2017-08-17T12:47:03.280Z,9.37
2017-08-17T12:49:31.458Z,9.63
2017-08-17T12:51:59.690Z,8.90
2017-08-17T12:54:27.933Z,9.67
2017-08-17T12:56:56.208Z,9.53
2017-08-17T12:59:24.419Z,9.77
2017-08-17T13:01:52.714Z,8.60
2017-08-17T13:04:20.938Z,9.17
2017-08-17T13:06:49.165Z,9.50
2017-08-17T13:09:17.551Z,8.47
2017-08-17T13:11:45.841Z,9.17
2017-08-17T13:14:14.261Z,8.03
2017-08-17T13:16:42.500Z,8.87
2017-08-17T13:19:10.713Z,8.50
2017-08-17T13:21:39.723Z,8.37
2017-08-17T13:24:07.885Z,7.97
2017-08-17T13:26:36.053Z,7.97
2017-08-17T13:29:04.266Z,8.37
2017-08-17T13:31:32.561Z,10.60
2017-08-17T13:34:00.728Z,8.03
2017-08-17T13:36:28.937Z,8.50
2017-08-17T13:38:57.382Z,10.27
2017-08-17T13:41:25.858Z,7.60
2017-08-17T13:43:54.757Z,9.30
2017-08-17T13:46:23.181Z,7.80
2017-08-17T13:48:51.334Z,8.00
2017-08-17T13:51:19.508Z,8.07
2017-08-17T13:53:47.668Z,8.40
2017-08-17T13:56:15.827Z,8.33
2017-08-17T13:58:44.047Z,10.13
2017-08-17T14:01:13.028Z,7.07
2017-08-17T14:03:44.347Z,8.70
2017-08-17T14:06:12.555Z,7.97
2017-08-17T14:08:40.846Z,7.70
2017-08-17T14:11:09.126Z,11.93
2017-08-17T14:13:37.616Z,8.37
2017-08-17T14:16:05.801Z,7.90
2017-08-17T14:18:34.208Z,8.10
2017-08-17T14:21:04.289Z,7.30
2017-08-17T14:23:32.851Z,7.70
2017-08-17T14:26:01.033Z,7.60
2017-08-17T14:28:29.330Z,7.73
2017-08-17T14:30:57.489Z,7.87
2017-08-17T14:33:25.661Z,7.97
2017-08-17T14:35:53.988Z,7.57
2017-08-17T14:38:22.166Z,7.63
2017-08-17T14:40:51.027Z,7.60
2017-08-17T14:43:19.262Z,6.67
2017-08-17T14:45:47.457Z,7.70
2017-08-17T14:48:15.794Z,9.10
2017-08-17T14:50:44.614Z,6.73
2017-08-17T14:53:16.867Z,7.53
2017-08-17T14:55:45.035Z,7.47
2017-08-17T14:58:13.242Z,7.27
2017-08-17T15:00:41.410Z,7.60
2017-08-17T15:03:09.603Z,8.63
2017-08-17T15:05:37.791Z,10.20
2017-08-17T15:08:05.983Z,8.70
2017-08-17T15:10:34.335Z,9.60
2017-08-17T15:13:02.548Z,8.30
2017-08-17T15:15:30.734Z,8.60
2017-08-17T15:18:01.347Z,8.13
2017-08-17T15:20:29.612Z,8.37
2017-08-17T15:22:57.762Z,7.70
2017-08-17T15:25:27.335Z,8.53
2017-08-17T15:27:56.227Z,8.30
2017-08-17T15:30:24.427Z,8.20
2017-08-17T15:32:52.632Z,8.17
2017-08-17T15:35:20.823Z,9.17
2017-08-17T15:37:48.995Z,8.93
2017-08-17T15:40:17.191Z,8.60
2017-08-17T15:42:46.287Z,8.67
2017-08-17T15:45:14.438Z,9.60
2017-08-17T15:47:42.596Z,9.73
2017-08-17T15:50:10.714Z,9.50
2017-08-17T15:52:38.888Z,9.60
2017-08-17T15:55:07.012Z,9.60
2017-08-17T15:57:35.141Z,8.90
2017-08-17T16:00:03.497Z,9.10
2017-08-17T16:02:31.684Z,9.70
2017-08-17T16:04:59.860Z,9.37
2017-08-17T16:07:27.989Z,8.60
2017-08-17T16:09:56.152Z,9.90
2017-08-17T16:12:24.292Z,10.20
2017-08-17T16:14:52.481Z,10.20
2017-08-17T16:17:20.712Z,9.73
2017-08-17T16:19:48.851Z,9.50
2017-08-17T16:22:17.012Z,9.00
2017-08-17T16:24:46.344Z,9.83
2017-08-17T16:27:15.338Z,9.27
2017-08-17T16:29:43.499Z,17.40
2017-08-17T16:32:11.684Z,10.00
2017-08-17T16:34:39.874Z,9.10
2017-08-17T16:37:10.890Z,10.60
2017-08-17T16:39:39.125Z,9.30
2017-08-17T16:42:07.270Z,9.57
2017-08-17T16:44:35.445Z,11.30
2017-08-17T16:47:03.586Z,9.50
2017-08-17T16:49:31.865Z,11.53
2017-08-17T16:52:00.063Z,11.70
2017-08-17T16:54:28.279Z,15.00
2017-08-17T16:56:56.452Z,11.30
2017-08-17T16:59:24.670Z,11.07
2017-08-17T17:01:52.831Z,10.77
2017-08-17T17:04:21.037Z,11.17
2017-08-17T17:06:49.239Z,12.07
2017-08-17T17:09:17.411Z,11.50
2017-08-17T17:11:45.606Z,12.27
2017-08-17T17:14:13.821Z,12.20
2017-08-17T17:16:42.060Z,11.80
2017-08-17T17:19:10.192Z,11.57
2017-08-17T17:21:39.005Z,12.17
2017-08-17T17:24:07.222Z,11.50
2017-08-17T17:26:35.428Z,11.83
2017-08-17T17:29:03.672Z,18.37
2017-08-17T17:31:31.873Z,17.53
2017-08-17T17:34:00.056Z,16.70
2017-08-17T17:36:28.200Z,12.57
2017-08-17T17:38:56.393Z,24.27
2017-08-17T17:41:24.549Z,57.03
2017-08-17T17:43:53.456Z,15.40
2017-08-17T17:46:21.684Z,11.80
2017-08-17T17:48:49.851Z,10.50
2017-08-17T17:51:18.822Z,9.83
2017-08-17T17:53:46.978Z,9.20
2017-08-17T17:56:15.160Z,9.07
2017-08-17T17:58:43.324Z,8.10
2017-08-17T18:01:11.548Z,9.60
2017-08-17T18:03:39.706Z,8.60
2017-08-17T18:06:08.199Z,10.17
2017-08-17T18:08:37.100Z,11.93
2017-08-17T18:11:05.253Z,12.87
2017-08-17T18:13:33.428Z,11.27
2017-08-17T18:16:01.794Z,10.43
2017-08-17T18:18:30.057Z,10.27
2017-08-17T18:20:58.238Z,12.27
2017-08-17T18:23:26.559Z,10.00
2017-08-17T18:25:55.500Z,10.53
2017-08-17T18:28:24.335Z,10.80
2017-08-17T18:30:52.535Z,11.87
2017-08-17T18:33:20.747Z,11.50
2017-08-17T18:35:49.679Z,11.30
2017-08-17T18:38:18.326Z,11.87
2017-08-17T18:40:46.781Z,11.00
2017-08-17T18:43:15.019Z,10.83
2017-08-17T18:45:43.268Z,12.33
2017-08-17T18:48:11.466Z,11.80
2017-08-17T18:50:40.057Z,11.20
2017-08-17T18:53:08.257Z,12.10
2017-08-17T18:55:37.197Z,11.37
2017-08-17T18:58:05.446Z,11.57
2017-08-17T19:00:33.618Z,12.80
2017-08-17T19:03:01.813Z,13.70
2017-08-17T19:05:29.992Z,12.07
2017-08-17T19:07:58.261Z,10.97
2017-08-17T19:10:26.433Z,11.10
2017-08-17T19:12:54.718Z,12.27
2017-08-17T19:15:22.921Z,12.00
2017-08-17T19:17:51.060Z,10.90
2017-08-17T19:20:19.314Z,11.00
2017-08-17T19:22:47.512Z,14.90
2017-08-17T19:25:15.686Z,12.10
2017-08-17T19:27:43.859Z,12.17
2017-08-17T19:30:12.033Z,12.47
2017-08-17T19:32:40.213Z,12.73
2017-08-17T19:35:49.554Z,13.13
2017-08-17T19:38:17.720Z,11.77
2017-08-17T19:40:45.902Z,12.07
2017-08-17T19:43:14.152Z,12.73
2017-08-17T19:45:44.285Z,13.67
2017-08-17T19:48:12.465Z,13.70
2017-08-17T19:50:41.196Z,12.83
2017-08-17T19:53:09.667Z,13.57
2017-08-17T19:55:38.059Z,15.17
2017-08-17T19:58:06.253Z,12.53
2017-08-17T20:00:35.138Z,14.63
2017-08-17T20:03:04.584Z,14.87
2017-08-17T20:05:33.211Z,13.70
2017-08-17T20:08:01.374Z,14.53
2017-08-17T20:10:29.531Z,15.80
2017-08-17T20:12:57.754Z,16.03
2017-08-17T20:15:25.935Z,16.73
2017-08-17T20:17:54.962Z,15.63
2017-08-17T20:20:23.823Z,19.80
2017-08-17T20:22:51.994Z,17.47
2017-08-17T20:25:20.142Z,18.90
2017-08-17T20:27:48.314Z,18.63
2017-08-17T20:30:16.567Z,19.50
2017-08-17T20:32:44.764Z,19.30
2017-08-17T20:35:12.958Z,19.77
2017-08-17T20:37:41.109Z,20.93
2017-08-17T20:40:09.305Z,18.67
2017-08-17T20:42:37.506Z,18.77
2017-08-17T20:45:06.137Z,19.90
2017-08-17T20:47:35.221Z,20.83
2017-08-17T20:50:03.370Z,19.80
2017-08-17T20:52:31.523Z,19.43
2017-08-17T20:55:00.373Z,19.27
2017-08-17T20:57:28.624Z,18.50
2017-08-17T20:59:56.792Z,18.87
2017-08-17T21:02:24.952Z,19.20
2017-08-17T21:04:53.174Z,19.83
2017-08-17T21:07:21.581Z,20.10
2017-08-17T21:09:49.753Z,20.83
2017-08-17T21:12:17.945Z,19.67
2017-08-17T21:14:46.171Z,19.93
2017-08-17T21:17:14.349Z,19.63
2017-08-17T21:19:42.545Z,19.47
2017-08-17T21:22:11.142Z,19.53
2017-08-17T21:24:39.328Z,20.37
2017-08-17T21:27:08.988Z,22.30
2017-08-17T21:29:37.901Z,22.70
2017-08-17T21:32:06.071Z,21.20
2017-08-17T21:34:34.226Z,20.70
2017-08-17T21:37:02.445Z,21.60
2017-08-17T21:39:30.606Z,20.97
2017-08-17T21:41:58.808Z,21.40
2017-08-17T21:44:27.765Z,22.37
2017-08-17T21:46:55.976Z,22.00
2017-08-17T21:49:24.506Z,20.83
2017-08-17T21:51:52.850Z,19.97
2017-08-17T21:54:22.258Z,22.07
2017-08-17T21:56:50.537Z,22.60
2017-08-17T21:59:18.721Z,20.70
2017-08-17T22:01:46.887Z,21.27
2017-08-17T22:04:15.058Z,20.67
2017-08-17T22:06:43.206Z,22.57
2017-08-17T22:09:11.405Z,20.10
2017-08-17T22:11:39.545Z,20.80
2017-08-17T22:14:08.521Z,20.40
2017-08-17T22:16:36.915Z,20.40
2017-08-17T22:19:05.257Z,19.93
2017-08-17T22:21:34.468Z,20.50
2017-08-17T22:24:02.629Z,23.40
2017-08-17T22:26:30.802Z,19.77
2017-08-17T22:28:59.718Z,19.67
2017-08-17T22:31:28.422Z,21.23
2017-08-17T22:33:56.578Z,21.57
2017-08-17T22:36:24.771Z,21.57
2017-08-17T22:38:52.934Z,20.57
2017-08-17T22:41:21.144Z,20.00
2017-08-17T22:43:49.302Z,19.13
2017-08-17T22:46:17.526Z,20.77
2017-08-17T22:48:45.696Z,20.53
2017-08-17T22:51:13.868Z,20.57
2017-08-17T22:53:42.045Z,20.50
2017-08-17T22:56:10.265Z,19.70
2017-08-17T22:58:38.488Z,21.20
2017-08-17T23:01:07.406Z,20.83
2017-08-17T23:03:35.578Z,20.13
2017-08-17T23:06:03.752Z,20.73
2017-08-17T23:08:31.965Z,22.60
2017-08-17T23:11:00.116Z,21.93
2017-08-17T23:13:28.269Z,23.03
2017-08-17T23:15:56.444Z,24.37
2017-08-17T23:18:24.598Z,24.90
2017-08-17T23:20:52.790Z,25.27
2017-08-17T23:23:21.666Z,25.07
2017-08-17T23:25:49.864Z,26.77
2017-08-17T23:28:18.005Z,27.23
2017-08-17T23:30:46.179Z,26.53
2017-08-17T23:33:14.382Z,25.60
2017-08-17T23:35:43.312Z,25.50
2017-08-17T23:38:11.534Z,25.43
2017-08-17T23:40:39.725Z,25.93
2017-08-17T23:43:07.920Z,26.60
2017-08-17T23:45:36.828Z,27.00
2017-08-17T23:48:05.004Z,27.93
2017-08-17T23:50:33.195Z,29.10
2017-08-17T23:53:01.385Z,29.93
2017-08-17T23:55:29.562Z,27.00
2017-08-17T23:57:57.761Z,28.80
